createdAt,value
2019-01-14T00:02:01.871Z,96231.20
2019-01-14T00:04:34.719Z,96230.28
2019-01-14T00:07:07.427Z,96224.66
2019-01-14T00:09:39.630Z,96219.42
2019-01-14T00:12:11.931Z,96221.95
2019-01-14T00:14:44.280Z,96228.00
2019-01-14T00:17:16.784Z,96232.06
2019-01-14T00:19:49.076Z,96228.20
2019-01-14T00:22:21.283Z,96232.67
2019-01-14T00:24:53.488Z,96243.39
2019-01-14T00:27:25.904Z,96241.00
2019-01-14T00:29:58.118Z,96238.70
2019-01-14T00:32:30.417Z,96245.00
2019-01-14T00:35:02.936Z,96252.84
2019-01-14T00:37:35.143Z,96259.36
2019-01-14T00:40:10.695Z,96258.88
2019-01-14T00:42:43.382Z,96262.61
2019-01-14T00:45:15.937Z,96264.69
2019-01-14T00:47:48.344Z,96267.94
2019-01-14T00:50:20.759Z,96276.77
2019-01-14T00:52:53.164Z,96277.89
2019-01-14T00:55:25.535Z,96272.59
2019-01-14T00:57:57.830Z,96282.13
2019-01-14T01:00:30.343Z,96277.60
2019-01-14T01:03:02.739Z,96285.80
2019-01-14T01:05:35.133Z,96284.59
2019-01-14T01:08:07.570Z,96288.67
2019-01-14T01:10:39.992Z,96292.63
2019-01-14T01:13:12.400Z,96301.41
2019-01-14T01:15:44.714Z,96308.24
2019-01-14T01:18:17.017Z,96304.44
2019-01-14T01:20:49.797Z,96305.59
2019-01-14T01:23:22.019Z,96319.77
2019-01-14T01:25:54.236Z,96324.58
2019-01-14T01:28:26.540Z,96335.91
2019-01-14T01:30:58.753Z,96334.66
2019-01-14T01:33:31.173Z,96339.48
2019-01-14T01:36:03.392Z,96338.91
2019-01-14T01:38:35.895Z,96348.33
2019-01-14T01:41:08.305Z,96346.09
2019-01-14T01:43:40.618Z,96344.78
2019-01-14T01:46:13.036Z,96347.37
2019-01-14T01:48:45.335Z,96356.02
2019-01-14T01:51:17.746Z,96359.85
2019-01-14T01:53:49.971Z,96364.92
2019-01-14T01:56:22.318Z,96363.52
2019-01-14T01:58:54.730Z,96356.78
2019-01-14T02:01:27.137Z,96363.48
2019-01-14T02:03:59.994Z,96372.39
2019-01-14T02:06:38.991Z,96370.80
2019-01-14T02:09:08.375Z,96372.64
2019-01-14T02:11:40.887Z,96375.36
2019-01-14T02:14:13.680Z,96384.30
2019-01-14T02:16:46.273Z,96383.50
2019-01-14T02:19:18.585Z,96390.97
2019-01-14T02:21:50.900Z,96388.95
2019-01-14T02:24:23.107Z,96392.62
2019-01-14T02:26:55.324Z,96390.71
2019-01-14T02:29:27.498Z,96392.79
2019-01-14T02:31:59.713Z,96405.88
2019-01-14T02:34:31.883Z,96406.95
2019-01-14T02:37:04.302Z,96408.87
2019-01-14T02:39:36.475Z,96423.49
2019-01-14T02:42:08.892Z,96415.58
2019-01-14T02:44:41.049Z,96427.34
2019-01-14T02:47:13.356Z,96433.50
2019-01-14T02:49:45.572Z,96438.16
2019-01-14T02:52:17.877Z,96438.84
2019-01-14T02:54:50.143Z,96453.92
2019-01-14T02:57:22.462Z,96461.81
2019-01-14T02:59:56.073Z,96459.65
2019-01-14T03:02:28.519Z,96457.70
2019-01-14T03:05:00.868Z,96462.61
2019-01-14T03:07:33.169Z,96468.92
2019-01-14T03:10:07.120Z,96477.70
2019-01-14T03:12:39.425Z,96477.73
2019-01-14T03:15:12.337Z,96479.65
2019-01-14T03:17:44.745Z,96484.31
2019-01-14T03:20:17.508Z,96491.31
2019-01-14T03:22:50.030Z,96493.48
2019-01-14T03:25:22.297Z,96494.69
2019-01-14T03:27:54.502Z,96495.01
2019-01-14T03:30:26.880Z,96489.56
2019-01-14T03:32:59.249Z,96490.73
2019-01-14T03:35:31.516Z,96480.09
2019-01-14T03:38:04.023Z,96475.55
2019-01-14T03:40:36.190Z,96473.67
2019-01-14T03:43:08.691Z,96475.00
2019-01-14T03:45:41.218Z,96481.74
2019-01-14T03:48:13.745Z,96481.52
2019-01-14T03:50:46.255Z,96497.27
2019-01-14T03:53:18.713Z,96500.92
2019-01-14T03:55:51.070Z,96505.86
2019-01-14T03:58:23.582Z,96503.91
2019-01-14T04:00:55.847Z,96510.86
2019-01-14T04:03:28.051Z,96519.80
2019-01-14T04:06:00.414Z,96526.50
2019-01-14T04:08:32.828Z,96531.05
2019-01-14T04:11:05.195Z,96523.00
2019-01-14T04:13:37.514Z,96531.73
2019-01-14T04:16:09.688Z,96540.50
2019-01-14T04:18:41.999Z,96551.51
2019-01-14T04:21:14.363Z,96555.49
2019-01-14T04:23:46.883Z,96564.46
2019-01-14T04:26:19.351Z,96560.00
2019-01-14T04:28:51.666Z,96564.11
2019-01-14T04:31:23.835Z,96564.30
2019-01-14T04:33:56.857Z,96568.66
2019-01-14T04:36:29.224Z,96575.99
2019-01-14T04:39:02.708Z,96586.03
2019-01-14T04:41:34.971Z,96588.70
2019-01-14T04:44:07.387Z,96587.63
2019-01-14T04:46:40.484Z,96596.60
2019-01-14T04:49:12.900Z,96597.31
2019-01-14T04:51:45.068Z,96599.31
2019-01-14T04:54:17.420Z,96607.52
2019-01-14T04:56:49.580Z,96607.44
2019-01-14T04:59:21.869Z,96608.55
2019-01-14T05:01:54.139Z,96616.61
2019-01-14T05:04:26.477Z,96613.86
2019-01-14T05:06:58.707Z,96621.72
2019-01-14T05:09:30.908Z,96615.69
2019-01-14T05:12:03.156Z,96612.70
2019-01-14T05:14:35.375Z,96627.77
2019-01-14T05:17:07.647Z,96633.59
2019-01-14T05:19:39.960Z,96628.81
2019-01-14T05:22:12.426Z,96638.10
2019-01-14T05:24:44.817Z,96641.72
2019-01-14T05:27:17.185Z,96636.91
2019-01-14T05:29:49.400Z,96638.30
2019-01-14T05:32:21.572Z,96649.53
2019-01-14T05:34:53.987Z,96658.56
2019-01-14T05:37:26.272Z,96662.39
2019-01-14T05:39:58.582Z,96670.17
2019-01-14T05:42:31.041Z,96688.22
2019-01-14T05:45:03.260Z,96679.31
2019-01-14T05:47:35.628Z,96681.27
2019-01-14T05:50:09.535Z,96685.06
2019-01-14T05:52:41.938Z,96692.45
2019-01-14T05:58:44.006Z,96712.23
2019-01-14T06:01:16.389Z,96724.68
2019-01-14T06:03:48.561Z,96722.75
2019-01-14T06:06:20.951Z,96731.97
2019-01-14T06:08:53.514Z,96731.23
2019-01-14T06:11:25.715Z,96737.77
2019-01-14T06:13:57.899Z,96744.95
2019-01-14T06:16:30.214Z,96748.09
2019-01-14T06:19:02.377Z,96756.68
2019-01-14T06:21:34.698Z,96754.44
2019-01-14T06:24:07.265Z,96759.70
2019-01-14T06:26:39.683Z,96766.75
2019-01-14T06:29:11.843Z,96765.81
2019-01-14T06:31:44.453Z,96774.08
2019-01-14T06:34:16.617Z,96781.28
2019-01-14T06:36:48.834Z,96783.03
2019-01-14T06:39:21.103Z,96793.88
2019-01-14T06:41:53.310Z,96793.67
2019-01-14T06:44:25.478Z,96812.45
2019-01-14T06:46:57.887Z,96809.80
2019-01-14T06:49:30.145Z,96812.34
2019-01-14T06:52:02.463Z,96815.80
2019-01-14T06:54:34.630Z,96828.20
2019-01-14T06:57:07.185Z,96829.32
2019-01-14T06:59:41.014Z,96833.73
2019-01-14T07:02:13.631Z,96847.15
2019-01-14T07:04:45.892Z,96846.68
2019-01-14T07:07:18.204Z,96853.62
2019-01-14T07:09:50.565Z,96864.12
2019-01-14T07:12:22.774Z,96862.80
2019-01-14T07:14:54.934Z,96871.88
2019-01-14T07:17:27.343Z,96884.13
2019-01-14T07:19:59.507Z,96895.48
2019-01-14T07:22:31.822Z,96895.02
2019-01-14T07:25:04.261Z,96898.87
2019-01-14T07:27:36.577Z,96894.06
2019-01-14T07:30:12.953Z,96897.67
2019-01-14T07:32:45.369Z,96903.77
2019-01-14T07:35:17.834Z,96911.37
2019-01-14T07:37:50.666Z,96912.74
2019-01-14T07:40:23.163Z,96918.94
2019-01-14T07:42:55.572Z,96921.97
2019-01-14T07:45:28.025Z,96924.52
2019-01-14T07:48:00.254Z,96930.25
2019-01-14T07:50:32.414Z,96932.50
2019-01-14T07:53:04.941Z,96934.66
2019-01-14T07:55:37.398Z,96932.13
2019-01-14T07:58:09.804Z,96937.22
2019-01-14T08:00:42.060Z,96939.59
2019-01-14T08:03:14.566Z,96944.17
2019-01-14T08:05:46.731Z,96945.45
2019-01-14T08:08:18.939Z,96943.80
2019-01-14T08:10:51.309Z,96948.10
2019-01-14T08:13:23.525Z,96963.55
2019-01-14T08:15:55.787Z,96955.79
2019-01-14T08:18:28.092Z,96961.41
2019-01-14T08:21:00.559Z,96960.78
2019-01-14T08:23:32.769Z,96964.77
2019-01-14T08:26:05.149Z,96967.63
2019-01-14T08:28:37.550Z,96974.52
2019-01-14T08:31:09.825Z,96979.06
2019-01-14T08:33:42.031Z,96982.77
2019-01-14T08:36:14.396Z,96983.50
2019-01-14T08:38:46.849Z,96990.95
2019-01-14T08:41:20.024Z,96990.80
2019-01-14T08:43:56.585Z,96986.12
2019-01-14T08:46:29.824Z,96986.71
2019-01-14T08:49:02.035Z,96983.31
2019-01-14T08:51:34.538Z,96981.02
2019-01-14T08:54:07.198Z,96990.64
2019-01-14T08:56:39.620Z,96993.98
2019-01-14T08:59:11.836Z,96993.44
2019-01-14T09:01:44.081Z,96999.55
2019-01-14T09:04:22.235Z,96999.86
2019-01-14T09:06:50.377Z,96995.88
2019-01-14T09:09:22.796Z,96994.52
2019-01-14T09:11:55.054Z,96991.51
2019-01-14T09:14:27.354Z,96997.24
2019-01-14T09:16:59.734Z,97003.45
2019-01-14T09:19:32.152Z,97002.94
2019-01-14T09:22:04.783Z,97005.38
2019-01-14T09:24:36.990Z,97000.55
2019-01-14T09:27:09.160Z,97004.01
2019-01-14T09:29:41.507Z,97011.20
2019-01-14T09:32:14.237Z,97013.67
2019-01-14T09:34:47.103Z,97021.84
2019-01-14T09:37:19.629Z,97024.58
2019-01-14T09:39:51.956Z,97019.38
2019-01-14T09:42:27.964Z,97039.27
2019-01-14T09:44:58.017Z,97047.48
2019-01-14T09:47:30.323Z,97055.09
2019-01-14T09:50:02.711Z,97056.44
2019-01-14T09:52:34.985Z,97056.69
2019-01-14T09:55:10.738Z,97055.19
2019-01-14T09:57:43.064Z,97051.51
2019-01-14T10:00:15.677Z,97056.19
2019-01-14T10:02:48.336Z,97053.11
2019-01-14T10:05:21.689Z,97046.75
2019-01-14T10:07:54.052Z,97043.02
2019-01-14T10:10:26.362Z,97045.34
2019-01-14T10:12:58.711Z,97046.44
2019-01-14T10:15:30.911Z,97043.47
2019-01-14T10:18:05.098Z,97047.30
2019-01-14T10:20:37.561Z,97038.89
2019-01-14T10:23:10.029Z,97045.70
2019-01-14T10:25:43.134Z,97054.75
2019-01-14T10:28:15.400Z,97047.11
2019-01-14T10:30:47.913Z,97053.33
2019-01-14T10:33:20.283Z,97051.22
2019-01-14T10:35:52.871Z,97051.98
2019-01-14T10:38:25.131Z,97054.76
2019-01-14T10:40:57.341Z,97062.00
2019-01-14T10:43:29.615Z,97060.92
2019-01-14T10:46:01.923Z,97063.73
2019-01-14T10:48:34.189Z,97064.44
2019-01-14T10:51:06.694Z,97063.09
2019-01-14T10:53:38.968Z,97061.77
2019-01-14T10:56:11.278Z,97065.16
2019-01-14T10:58:43.584Z,97062.80
2019-01-14T11:01:15.891Z,97065.69
2019-01-14T11:03:48.158Z,97069.27
2019-01-14T11:06:20.715Z,97069.09
2019-01-14T11:08:57.625Z,97069.57
2019-01-14T11:11:27.246Z,97070.16
2019-01-14T11:13:59.773Z,97065.48
2019-01-14T11:16:32.261Z,97063.20
2019-01-14T11:19:04.528Z,97055.77
2019-01-14T11:21:36.942Z,97052.55
2019-01-14T11:24:09.318Z,97058.28
2019-01-14T11:26:41.728Z,97050.58
2019-01-14T11:29:14.005Z,97041.19
2019-01-14T11:31:46.415Z,97045.92
2019-01-14T11:34:18.582Z,97051.27
2019-01-14T11:36:50.804Z,97050.48
2019-01-14T11:39:23.719Z,97048.30
2019-01-14T11:41:56.346Z,97051.70
2019-01-14T11:44:28.519Z,97049.41
2019-01-14T11:47:00.834Z,97052.88
2019-01-14T11:49:32.999Z,97052.33
2019-01-14T11:52:05.516Z,97053.09
2019-01-14T11:54:37.813Z,97049.31
2019-01-14T11:57:10.279Z,97040.00
2019-01-14T11:59:42.543Z,97036.02
2019-01-14T12:02:14.956Z,97033.34
2019-01-14T12:04:47.121Z,97040.98
2019-01-14T12:07:19.520Z,97038.99
2019-01-14T12:09:51.702Z,97038.76
2019-01-14T12:12:24.114Z,97041.81
2019-01-14T12:14:56.278Z,97040.69
2019-01-14T12:17:28.684Z,97039.58
2019-01-14T12:20:00.947Z,97030.53
2019-01-14T12:22:33.152Z,97038.25
2019-01-14T12:25:06.194Z,97047.33
2019-01-14T12:27:38.606Z,97036.80
2019-01-14T12:30:39.857Z,97040.14
2019-01-14T12:33:12.178Z,97037.08
2019-01-14T12:35:44.339Z,97052.33
2019-01-14T12:38:16.557Z,97063.77
2019-01-14T12:40:48.920Z,97067.10
2019-01-14T12:43:21.238Z,97065.24
2019-01-14T12:45:53.497Z,97067.22
2019-01-14T12:48:25.715Z,97062.31
2019-01-14T12:50:57.969Z,97066.66
2019-01-14T12:53:30.613Z,97065.70
2019-01-14T12:56:02.975Z,97061.44
2019-01-14T12:58:35.309Z,97066.41
2019-01-14T13:01:07.685Z,97064.04
2019-01-14T13:03:39.993Z,97080.02
2019-01-14T13:06:12.480Z,97084.08
2019-01-14T13:08:44.783Z,97085.99
2019-01-14T13:11:17.055Z,97100.97
2019-01-14T13:13:49.352Z,97134.02
2019-01-14T13:16:21.824Z,97131.48
2019-01-14T13:18:54.529Z,97123.71
2019-01-14T13:21:26.954Z,97131.78
2019-01-14T13:23:59.169Z,97140.04
2019-01-14T13:26:31.689Z,97142.38
2019-01-14T13:29:04.005Z,97152.73
2019-01-14T13:31:36.318Z,97151.70
2019-01-14T13:34:08.739Z,97156.08
2019-01-14T13:36:41.052Z,97164.05
2019-01-14T13:39:13.563Z,97169.91
2019-01-14T13:41:45.985Z,97177.42
2019-01-14T13:44:18.159Z,97172.88
2019-01-14T13:46:50.381Z,97167.91
2019-01-14T13:49:22.748Z,97168.44
2019-01-14T13:51:55.169Z,97162.55
2019-01-14T13:54:27.377Z,97166.14
2019-01-14T13:56:59.762Z,97174.35
2019-01-14T13:59:31.924Z,97179.19
2019-01-14T14:02:04.345Z,97185.94
2019-01-14T14:04:36.806Z,97181.51
2019-01-14T14:07:09.223Z,97191.11
2019-01-14T14:09:41.507Z,97198.03
2019-01-14T14:12:13.780Z,97203.96
2019-01-14T14:14:46.039Z,97205.61
2019-01-14T14:17:18.355Z,97214.66
2019-01-14T14:19:50.511Z,97219.83
2019-01-14T14:22:22.796Z,97230.04
2019-01-14T14:24:54.964Z,97234.20
2019-01-14T14:27:27.379Z,97245.44
2019-01-14T14:29:59.738Z,97229.08
2019-01-14T14:32:32.049Z,97239.69
2019-01-14T14:35:04.637Z,97235.49
2019-01-14T14:37:37.050Z,97241.27
2019-01-14T14:40:10.682Z,97241.62
2019-01-14T14:42:42.995Z,97244.34
2019-01-14T14:45:17.366Z,97250.86
2019-01-14T14:47:49.675Z,97256.50
2019-01-14T14:50:22.197Z,97260.34
2019-01-14T14:52:54.709Z,97257.28
2019-01-14T14:55:27.019Z,97272.34
2019-01-14T14:57:59.529Z,97274.57
2019-01-14T15:00:31.906Z,97274.59
2019-01-14T15:03:04.218Z,97275.92
2019-01-14T15:05:36.388Z,97289.23
2019-01-14T15:08:08.791Z,97291.70
2019-01-14T15:10:41.055Z,97294.44
2019-01-14T15:13:13.451Z,97298.52
2019-01-14T15:15:45.716Z,97304.38
2019-01-14T15:18:17.988Z,97293.67
2019-01-14T15:20:50.272Z,97294.81
2019-01-14T15:23:22.481Z,97307.92
2019-01-14T15:25:54.743Z,97306.01
2019-01-14T15:28:27.139Z,97309.77
2019-01-14T15:30:59.308Z,97310.61
2019-01-14T15:33:31.901Z,97318.97
2019-01-14T15:36:04.272Z,97325.56
2019-01-14T15:38:36.485Z,97327.91
2019-01-14T15:41:09.676Z,97331.72
2019-01-14T15:43:41.892Z,97332.59
2019-01-14T15:46:14.164Z,97339.56
2019-01-14T15:48:46.368Z,97337.20
2019-01-14T15:51:18.734Z,97342.22
2019-01-14T15:53:51.089Z,97340.94
2019-01-14T15:56:23.500Z,97341.77
2019-01-14T15:58:55.867Z,97348.48
2019-01-14T16:01:28.129Z,97343.41
2019-01-14T16:04:00.450Z,97349.59
2019-01-14T16:06:32.613Z,97355.21
2019-01-14T16:09:07.298Z,97364.47
2019-01-14T16:11:39.566Z,97370.09
2019-01-14T16:14:11.871Z,97369.41
2019-01-14T16:16:44.033Z,97377.89
2019-01-14T16:19:16.350Z,97385.28
2019-01-14T16:21:48.514Z,97386.05
2019-01-14T16:24:20.933Z,97390.83
2019-01-14T16:26:53.241Z,97395.58
2019-01-14T16:29:25.462Z,97402.55
2019-01-14T16:31:57.619Z,97404.63
2019-01-14T16:34:29.833Z,97401.56
2019-01-14T16:37:02.197Z,97409.19
2019-01-14T16:39:34.412Z,97412.77
2019-01-14T16:42:06.783Z,97417.16
2019-01-14T16:44:39.100Z,97431.61
2019-01-14T16:47:11.564Z,97438.14
2019-01-14T16:49:43.850Z,97462.30
2019-01-14T16:52:16.208Z,97466.72
2019-01-14T16:54:48.518Z,97489.69
2019-01-14T16:57:20.680Z,97479.42
2019-01-14T16:59:53.135Z,97492.23
2019-01-14T17:02:25.305Z,97491.22
2019-01-14T17:04:57.621Z,97494.81
2019-01-14T17:07:29.783Z,97504.58
2019-01-14T17:10:01.995Z,97505.66
2019-01-14T17:12:34.158Z,97516.14
2019-01-14T17:15:07.332Z,97514.13
2019-01-14T17:17:39.491Z,97523.55
2019-01-14T17:20:18.741Z,97526.23
2019-01-14T17:22:51.187Z,97535.37
2019-01-14T17:25:23.597Z,97540.78
2019-01-14T17:27:55.970Z,97554.32
2019-01-14T17:30:28.379Z,97556.98
2019-01-14T17:33:00.639Z,97568.59
2019-01-14T17:35:33.048Z,97580.41
2019-01-14T17:38:05.319Z,97570.05
2019-01-14T17:40:37.533Z,97561.12
2019-01-14T17:43:09.794Z,97574.73
2019-01-14T17:45:42.107Z,97579.17
2019-01-14T17:48:14.474Z,97593.19
2019-01-14T17:50:46.687Z,97594.61
2019-01-14T17:53:18.949Z,97596.77
2019-01-14T17:55:51.320Z,97608.37
2019-01-14T17:58:23.492Z,97601.30
2019-01-14T18:00:55.806Z,97610.61
2019-01-14T18:03:28.079Z,97609.13
2019-01-14T18:06:00.387Z,97610.94
2019-01-14T18:08:32.654Z,97618.06
2019-01-14T18:11:04.966Z,97618.45
2019-01-14T18:13:37.235Z,97626.89
2019-01-14T18:16:09.740Z,97619.87
2019-01-14T18:18:41.909Z,97615.19
2019-01-14T18:21:14.288Z,97622.32
2019-01-14T18:23:46.469Z,97620.48
2019-01-14T18:26:19.813Z,97624.80
2019-01-14T18:28:51.965Z,97626.59
2019-01-14T18:31:24.423Z,97631.45
2019-01-14T18:33:56.596Z,97627.18
2019-01-14T18:36:29.211Z,97627.33
2019-01-14T18:39:01.577Z,97634.81
2019-01-14T18:41:33.859Z,97645.86
2019-01-14T18:44:07.086Z,97649.97
2019-01-14T18:46:39.389Z,97650.14
2019-01-14T18:49:12.186Z,97651.88
2019-01-14T18:51:44.485Z,97650.91
2019-01-14T18:54:16.758Z,97654.91
2019-01-14T18:56:49.012Z,97652.53
2019-01-14T18:59:21.382Z,97659.05
2019-01-14T19:01:53.700Z,97661.73
2019-01-14T19:04:25.866Z,97677.81
2019-01-14T19:06:58.190Z,97684.56
2019-01-14T19:09:30.447Z,97694.30
2019-01-14T19:12:02.978Z,97706.89
2019-01-14T19:14:35.400Z,97720.48
2019-01-14T19:17:08.700Z,97716.81
2019-01-14T19:19:40.865Z,97721.13
2019-01-14T19:22:13.287Z,97718.48
2019-01-14T19:24:45.452Z,97733.64
2019-01-14T19:27:18.046Z,97739.89
2019-01-14T19:29:50.311Z,97745.98
2019-01-14T19:32:22.619Z,97752.78
2019-01-14T19:34:54.881Z,97752.11
2019-01-14T19:37:27.294Z,97766.31
2019-01-14T19:39:59.457Z,97754.97
2019-01-14T19:42:31.765Z,97762.98
2019-01-14T19:45:04.037Z,97770.34
2019-01-14T19:47:36.357Z,97772.92
2019-01-14T19:50:13.427Z,97780.69
2019-01-14T19:52:46.146Z,97786.91
2019-01-14T19:55:18.786Z,97791.57
2019-01-14T19:57:51.345Z,97796.84
2019-01-14T20:00:28.405Z,97805.87
2019-01-14T20:03:01.190Z,97808.53
2019-01-14T20:05:33.533Z,97821.38
2019-01-14T20:08:06.339Z,97827.81
2019-01-14T20:10:38.511Z,97822.48
2019-01-14T20:13:10.829Z,97828.37
2019-01-14T20:15:43.093Z,97833.12
2019-01-14T20:18:15.497Z,97834.11
2019-01-14T20:20:47.961Z,97838.79
2019-01-14T20:23:20.349Z,97843.39
2019-01-14T20:25:52.515Z,97849.33
2019-01-14T20:28:24.731Z,97851.73
2019-01-14T20:30:56.897Z,97858.25
2019-01-14T20:33:29.119Z,97853.97
2019-01-14T20:36:01.293Z,97863.14
2019-01-14T20:38:33.703Z,97861.16
2019-01-14T20:41:06.070Z,97866.87
2019-01-14T20:43:38.282Z,97869.64
2019-01-14T20:46:10.548Z,97873.09
2019-01-14T20:48:42.767Z,97871.97
2019-01-14T20:51:15.130Z,97873.49
2019-01-14T20:53:47.350Z,97872.62
2019-01-14T20:56:19.510Z,97867.53
2019-01-14T20:58:51.867Z,97867.04
2019-01-14T21:01:24.214Z,97876.35
2019-01-14T21:03:56.729Z,97880.20
2019-01-14T21:06:29.313Z,97880.11
2019-01-14T21:09:01.973Z,97876.93
2019-01-14T21:11:34.542Z,97876.14
2019-01-14T21:14:07.462Z,97881.58
2019-01-14T21:16:40.023Z,97876.89
2019-01-14T21:19:12.640Z,97883.86
2019-01-14T21:21:45.206Z,97886.00
2019-01-14T21:24:17.817Z,97890.30
2019-01-14T21:26:50.404Z,97889.47
2019-01-14T21:29:26.027Z,97891.45
2019-01-14T21:31:57.324Z,97891.86
2019-01-14T21:34:29.939Z,97897.65
2019-01-14T21:37:02.509Z,97896.86
2019-01-14T21:39:35.123Z,97896.36
2019-01-14T21:42:07.686Z,97897.07
2019-01-14T21:44:40.305Z,97897.56
2019-01-14T21:47:12.949Z,97897.79
2019-01-14T21:49:45.566Z,97905.12
2019-01-14T21:52:18.198Z,97903.17
2019-01-14T21:54:50.712Z,97901.32
2019-01-14T21:57:23.276Z,97901.70
2019-01-14T21:59:55.922Z,97900.91
2019-01-14T22:02:28.479Z,97898.20
2019-01-14T22:05:01.097Z,97901.22
2019-01-14T22:07:33.662Z,97905.34
2019-01-14T22:10:07.914Z,97907.57
2019-01-14T22:12:40.477Z,97905.53
2019-01-14T22:15:13.452Z,97908.38
2019-01-14T22:17:46.016Z,97916.47
2019-01-14T22:20:24.961Z,97918.89
2019-01-14T22:22:57.546Z,97921.41
2019-01-14T22:25:30.160Z,97925.14
2019-01-14T22:28:02.720Z,97922.87
2019-01-14T22:30:38.459Z,97921.68
2019-01-14T22:33:11.024Z,97921.44
2019-01-14T22:35:43.637Z,97920.16
2019-01-14T22:38:16.206Z,97914.48
2019-01-14T22:40:48.822Z,97915.10
2019-01-14T22:43:20.970Z,97916.55
2019-01-14T22:45:53.180Z,97909.58
2019-01-14T22:48:25.446Z,97907.63
2019-01-14T22:50:57.762Z,97902.53
2019-01-14T22:53:29.935Z,97910.11
2019-01-14T22:56:02.319Z,97907.95
2019-01-14T22:58:34.478Z,97911.52
2019-01-14T23:01:35.404Z,97916.16
2019-01-14T23:04:08.077Z,97915.00
2019-01-14T23:06:40.438Z,97910.45
2019-01-14T23:09:13.144Z,97912.76
2019-01-14T23:11:45.454Z,97913.73
2019-01-14T23:14:17.720Z,97917.14
2019-01-14T23:16:50.042Z,97915.77
2019-01-14T23:19:22.307Z,97928.52
2019-01-14T23:21:54.629Z,97929.00
2019-01-14T23:24:26.998Z,97931.01
2019-01-14T23:26:59.317Z,97927.58
2019-01-14T23:29:31.483Z,97929.47
2019-01-14T23:32:03.695Z,97927.70
2019-01-14T23:34:35.862Z,97939.92
2019-01-14T23:37:08.178Z,97942.19
2019-01-14T23:39:40.439Z,97949.05
2019-01-14T23:42:12.724Z,97949.11
2019-01-14T23:44:44.979Z,97956.23
2019-01-14T23:47:17.359Z,97951.15
2019-01-14T23:49:49.522Z,97950.35
2019-01-14T23:52:21.736Z,97951.89
2019-01-14T23:54:53.994Z,97959.25
2019-01-14T23:57:26.204Z,97957.30
2019-01-14T23:59:58.374Z,97952.36
